Time;durP1;ratioP1;P1;durP2;ratioP2;P2;SDS_P1;SDS_P2;PMS_P1;PMS_P2;Temp;Humidity;BMP_temperature;BMP_pressure;BME280_temperature;BME280_humidity;BME280_pressure;Samples;Min_cycle;Max_cycle;Signal;HPM_P1;HPM_P2
2022/08/19 00:00:20;;;;;;;8.85;1.00;;;;;;;;;;1023755;28;20035;-73
2022/08/19 00:00:51;;;;;;;11.32;1.60;;;;;;;;;;1023849;28;20031;-73
2022/08/19 00:01:22;;;;;;;2.38;0.75;;;;;;;;;;1023618;29;20027;-73
2022/08/19 00:01:53;;;;;;;4.55;0.70;;;;;;;;;;1024025;28;20035;-73
2022/08/19 00:02:24;;;;;;;3.35;1.15;;;;;;;;;;1027581;28;20054;-73
2022/08/19 00:02:54;;;;;;;10.55;1.58;;;;;;;;;;1028143;28;20395;-73
2022/08/19 00:03:25;;;;;;;9.00;1.23;;;;;;;;;;1028060;28;20471;-73
2022/08/19 00:03:56;;;;;;;3.03;0.90;;;;;;;;;;1028082;28;20148;-73
2022/08/19 00:04:30;;;;;;;9.60;1.30;;;;;;;;;;1028025;28;20364;-73
2022/08/19 00:05:01;;;;;;;20.58;1.50;;;;;;;;;;1027955;28;20073;-73
2022/08/19 00:05:31;;;;;;;10.75;1.10;;;;;;;;;;1028027;28;20034;-73
2022/08/19 00:06:02;;;;;;;3.45;1.52;;;;;;;;;;1028038;28;20037;-73
2022/08/19 00:06:33;;;;;;;1.25;0.65;;;;;;;;;;1028112;28;20121;-73
2022/08/19 00:07:05;;;;;;;5.45;1.00;;;;;;;;;;1027894;28;20023;-73
2022/08/19 00:07:37;;;;;;;3.33;1.58;;;;;;;;;;1028034;28;20050;-73
2022/08/19 00:08:07;;;;;;;11.00;1.70;;;;;;;;;;1027943;28;20039;-73
2022/08/19 00:08:38;;;;;;;2.72;1.27;;;;;;;;;;1028037;28;20030;-73
2022/08/19 00:09:10;;;;;;;4.50;1.17;;;;;;;;;;1027989;28;20154;-73
2022/08/19 00:09:40;;;;;;;10.73;1.73;;;;;;;;;;1028077;28;20042;-73
2022/08/19 00:10:12;;;;;;;3.80;1.10;;;;;;;;;;1027592;28;20081;-73
2022/08/19 00:10:43;;;;;;;2.78;1.27;;;;;;;;;;1027810;28;20039;-73
2022/08/19 00:11:13;;;;;;;5.63;1.23;;;;;;;;;;1027659;28;20567;-73
2022/08/19 00:11:44;;;;;;;8.43;1.38;;;;;;;;;;1027761;28;20034;-73
2022/08/19 00:12:15;;;;;;;7.05;1.27;;;;;;;;;;1027517;28;20530;-73
2022/08/19 00:12:45;;;;;;;9.48;1.08;;;;;;;;;;1027854;28;20031;-73
2022/08/19 00:13:16;;;;;;;3.53;1.13;;;;;;;;;;1027662;28;20483;-73
2022/08/19 00:13:48;;;;;;;3.80;1.25;;;;;;;;;;1023876;28;20031;-73
2022/08/19 00:14:20;;;;;;;4.30;0.73;;;;;;;;;;1027652;28;20427;-73
2022/08/19 00:14:53;;;;;;;3.05;0.95;;;;;;;;;;1027865;28;20423;-73
2022/08/19 00:15:24;;;;;;;2.72;1.20;;;;;;;;;;1027660;28;20155;-73
2022/08/19 00:15:55;;;;;;;5.85;0.93;;;;;;;;;;1028121;28;20258;-73
2022/08/19 00:16:26;;;;;;;7.40;1.30;;;;;;;;;;1027568;28;20487;-73
2022/08/19 00:16:56;;;;;;;11.30;2.00;;;;;;;;;;1027692;28;20033;-73
2022/08/19 00:17:27;;;;;;;5.15;1.50;;;;;;;;;;1027658;28;20030;-73
2022/08/19 00:17:57;;;;;;;9.88;1.38;;;;;;;;;;1027694;28;20058;-73
2022/08/19 00:18:28;;;;;;;5.28;1.27;;;;;;;;;;1027954;28;20058;-73
2022/08/19 00:18:59;;;;;;;8.55;1.17;;;;;;;;;;1028016;28;20034;-73
2022/08/19 00:19:29;;;;;;;12.85;1.10;;;;;;;;;;1028033;28;20479;-73
2022/08/19 00:20:00;;;;;;;11.65;1.13;;;;;;;;;;1028002;28;20035;-73
2022/08/19 00:20:30;;;;;;;3.53;1.23;;;;;;;;;;1028003;28;20035;-73
2022/08/19 00:21:01;;;;;;;11.18;1.00;;;;;;;;;;1027830;28;20022;-73
2022/08/19 00:21:32;;;;;;;10.48;0.90;;;;;;;;;;1027183;28;20022;-73
2022/08/19 00:22:03;;;;;;;5.20;1.00;;;;;;;;;;1027600;28;20035;-73
2022/08/19 00:22:34;;;;;;;18.08;1.42;;;;;;;;;;1027780;28;20475;-73
2022/08/19 00:23:05;;;;;;;1.75;0.80;;;;;;;;;;1027688;28;20146;-73
2022/08/19 00:23:36;;;;;;;3.92;1.23;;;;;;;;;;1028018;28;20038;-73
2022/08/19 00:24:07;;;;;;;5.35;1.38;;;;;;;;;;1027579;28;20019;-73
2022/08/19 00:24:38;;;;;;;4.80;1.15;;;;;;;;;;1028378;28;20027;-77
2022/08/19 00:25:09;;;;;;;5.93;1.38;;;;;;;;;;1027733;28;20106;-73
2022/08/19 00:25:40;;;;;;;5.72;1.85;;;;;;;;;;1027729;28;20019;-73
2022/08/19 00:26:10;;;;;;;6.45;1.73;;;;;;;;;;1027686;28;20113;-73
2022/08/19 00:26:41;;;;;;;4.85;1.33;;;;;;;;;;1028032;28;20029;-73
2022/08/19 00:27:12;;;;;;;2.90;1.33;;;;;;;;;;1027429;28;20031;-73
2022/08/19 00:27:42;;;;;;;3.00;1.35;;;;;;;;;;1027668;28;20026;-73
2022/08/19 00:28:13;;;;;;;8.57;1.48;;;;;;;;;;1027615;28;20022;-73
2022/08/19 00:28:43;;;;;;;7.03;1.45;;;;;;;;;;1027820;28;20118;-73
2022/08/19 00:29:15;;;;;;;4.60;0.95;;;;;;;;;;1027517;28;20271;-73
2022/08/19 00:29:46;;;;;;;11.40;1.48;;;;;;;;;;1027791;28;20027;-73
2022/08/19 00:30:17;;;;;;;7.85;1.58;;;;;;;;;;1027544;28;20101;-73
2022/08/19 00:30:47;;;;;;;6.13;1.13;;;;;;;;;;1027856;28;20054;-73
2022/08/19 00:31:18;;;;;;;5.25;1.60;;;;;;;;;;1027931;28;20027;-73
2022/08/19 00:31:50;;;;;;;10.27;1.20;;;;;;;;;;1027984;28;20368;-73
2022/08/19 00:32:20;;;;;;;11.02;1.52;;;;;;;;;;1027867;28;20479;-73
2022/08/19 00:32:51;;;;;;;6.75;1.50;;;;;;;;;;1027725;28;20031;-73
2022/08/19 00:33:22;;;;;;;5.07;1.38;;;;;;;;;;1027591;28;20478;-73
2022/08/19 00:33:52;;;;;;;6.95;1.27;;;;;;;;;;1027812;28;20029;-73
2022/08/19 00:34:23;;;;;;;5.88;1.42;;;;;;;;;;1027551;28;20035;-73
2022/08/19 00:34:53;;;;;;;6.80;1.40;;;;;;;;;;1028102;28;20023;-73
2022/08/19 00:35:24;;;;;;;7.50;1.67;;;;;;;;;;1027855;28;20054;-73
2022/08/19 00:35:55;;;;;;;6.93;1.70;;;;;;;;;;1027652;28;20407;-73
2022/08/19 00:36:26;;;;;;;2.90;1.38;;;;;;;;;;1027663;28;20134;-73
2022/08/19 00:36:57;;;;;;;5.28;1.58;;;;;;;;;;1027727;28;20034;-73
2022/08/19 00:37:28;;;;;;;8.43;1.77;;;;;;;;;;1027427;28;20026;-73
2022/08/19 00:37:59;;;;;;;5.38;1.85;;;;;;;;;;1027686;28;20030;-73
2022/08/19 00:38:29;;;;;;;5.75;1.90;;;;;;;;;;1027521;28;20058;-74
2022/08/19 00:39:00;;;;;;;2.28;1.15;;;;;;;;;;1027702;28;20022;-73
2022/08/19 00:39:31;;;;;;;5.03;1.83;;;;;;;;;;1027802;28;20030;-73
2022/08/19 00:40:03;;;;;;;6.60;1.80;;;;;;;;;;1027753;28;20038;-73
2022/08/19 00:40:34;;;;;;;5.43;1.92;;;;;;;;;;1028171;28;20489;-73
2022/08/19 00:41:05;;;;;;;13.55;1.63;;;;;;;;;;1027599;28;20038;-73
2022/08/19 00:41:36;;;;;;;17.20;1.52;;;;;;;;;;1027702;28;20051;-73
2022/08/19 00:42:06;;;;;;;5.50;1.38;;;;;;;;;;1027584;28;20118;-73
2022/08/19 00:42:38;;;;;;;15.18;2.28;;;;;;;;;;1027629;28;20074;-73
2022/08/19 00:43:10;;;;;;;18.77;1.95;;;;;;;;;;1027634;28;20031;-73
2022/08/19 00:43:41;;;;;;;13.93;2.40;;;;;;;;;;1027669;28;20023;-73
2022/08/19 00:44:13;;;;;;;15.30;3.17;;;;;;;;;;1027643;28;20023;-73
2022/08/19 00:44:43;;;;;;;3.63;1.13;;;;;;;;;;1028056;28;20081;-73
2022/08/19 00:45:16;;;;;;;4.28;1.67;;;;;;;;;;1027862;28;20530;-73
2022/08/19 00:45:47;;;;;;;2.60;1.10;;;;;;;;;;1028088;28;20074;-73
2022/08/19 00:46:18;;;;;;;3.00;1.08;;;;;;;;;;1027914;28;20542;-73
2022/08/19 00:46:49;;;;;;;8.43;1.45;;;;;;;;;;1027977;28;20570;-73
2022/08/19 00:47:21;;;;;;;8.75;1.83;;;;;;;;;;1027894;28;20027;-73
2022/08/19 00:47:52;;;;;;;12.57;1.65;;;;;;;;;;1028068;28;20034;-73
2022/08/19 00:48:23;;;;;;;11.15;1.48;;;;;;;;;;1027795;28;20074;-73
2022/08/19 00:48:54;;;;;;;23.30;2.10;;;;;;;;;;1028063;28;20023;-73
2022/08/19 00:49:28;;;;;;;15.48;1.70;;;;;;;;;;1027928;28;20022;-73
2022/08/19 00:49:59;;;;;;;5.00;1.45;;;;;;;;;;1027547;28;20418;-73
2022/08/19 00:50:30;;;;;;;12.82;1.75;;;;;;;;;;1027551;28;20150;-73
2022/08/19 00:51:01;;;;;;;7.10;1.42;;;;;;;;;;1027609;28;20129;-73
2022/08/19 00:51:32;;;;;;;10.32;1.45;;;;;;;;;;1027668;28;20034;-73
2022/08/19 00:52:08;;;;;;;7.97;1.70;;;;;;;;;;1027565;28;20133;-73
2022/08/19 00:52:42;;;;;;;4.95;2.35;;;;;;;;;;1028005;28;20133;-73
2022/08/19 00:53:14;;;;;;;10.05;1.42;;;;;;;;;;1027935;28;20023;-73
2022/08/19 00:53:45;;;;;;;11.23;1.83;;;;;;;;;;1028044;28;20015;-73
2022/08/19 00:54:16;;;;;;;2.97;1.25;;;;;;;;;;1027887;28;20121;-73
2022/08/19 00:54:47;;;;;;;15.13;1.98;;;;;;;;;;1028066;28;20391;-73
2022/08/19 00:55:20;;;;;;;5.07;1.90;;;;;;;;;;1027833;28;20022;-73
2022/08/19 00:55:53;;;;;;;3.55;1.77;;;;;;;;;;1028035;28;20034;-73
2022/08/19 00:56:26;;;;;;;6.78;1.95;;;;;;;;;;1027814;28;20468;-73
2022/08/19 00:56:57;;;;;;;4.78;1.40;;;;;;;;;;1027547;28;20097;-74
2022/08/19 00:57:29;;;;;;;4.93;1.50;;;;;;;;;;1027711;28;20037;-73
2022/08/19 00:58:06;;;;;;;8.10;1.67;;;;;;;;;;1027540;28;20030;-73
2022/08/19 00:58:37;;;;;;;13.95;1.80;;;;;;;;;;1027649;28;20507;-73
2022/08/19 00:59:08;;;;;;;11.82;2.20;;;;;;;;;;1027552;28;20030;-74
2022/08/19 00:59:40;;;;;;;10.10;1.95;;;;;;;;;;1024727;28;20034;-73
2022/08/19 01:00:13;;;;;;;6.70;1.95;;;;;;;;;;1023925;28;20078;-73
2022/08/19 01:00:44;;;;;;;5.78;1.77;;;;;;;;;;1023670;28;20038;-73
2022/08/19 01:01:15;;;;;;;9.38;2.17;;;;;;;;;;1023567;29;20078;-73
2022/08/19 01:01:46;;;;;;;13.20;2.35;;;;;;;;;;1023680;29;20396;-73
2022/08/19 01:02:16;;;;;;;17.33;1.83;;;;;;;;;;1022919;29;20169;-73
2022/08/19 01:02:47;;;;;;;26.77;2.35;;;;;;;;;;1023620;28;20039;-73
2022/08/19 01:03:19;;;;;;;2.70;1.73;;;;;;;;;;1023863;28;20036;-73
2022/08/19 01:03:49;;;;;;;7.35;1.58;;;;;;;;;;1023772;28;20042;-73
2022/08/19 01:04:20;;;;;;;5.85;1.85;;;;;;;;;;1023343;29;20039;-73
2022/08/19 01:04:51;;;;;;;3.72;1.30;;;;;;;;;;1024091;28;20468;-73
2022/08/19 01:05:23;;;;;;;4.13;1.30;;;;;;;;;;1027484;28;20497;-74
2022/08/19 01:05:54;;;;;;;9.90;1.70;;;;;;;;;;1028055;28;20517;-73
2022/08/19 01:06:25;;;;;;;15.30;2.13;;;;;;;;;;1027615;28;20046;-73
2022/08/19 01:06:57;;;;;;;11.18;2.08;;;;;;;;;;1027478;28;20022;-73
2022/08/19 01:07:27;;;;;;;18.15;2.20;;;;;;;;;;1027741;28;20479;-74
2022/08/19 01:08:00;;;;;;;11.02;1.95;;;;;;;;;;1024072;28;20050;-73
2022/08/19 01:08:31;;;;;;;16.30;2.67;;;;;;;;;;1016208;29;20038;-73
2022/08/19 01:09:01;;;;;;;14.20;2.47;;;;;;;;;;1019657;29;20034;-73
2022/08/19 01:09:32;;;;;;;7.35;1.83;;;;;;;;;;1020113;29;20550;-73
2022/08/19 01:10:03;;;;;;;4.25;1.70;;;;;;;;;;1023585;28;20071;-73
2022/08/19 01:10:37;;;;;;;23.85;2.33;;;;;;;;;;1027551;28;20393;-73
2022/08/19 01:11:08;;;;;;;5.45;1.55;;;;;;;;;;1027541;28;20510;-73
2022/08/19 01:11:40;;;;;;;6.53;2.35;;;;;;;;;;1027090;28;20031;-73
2022/08/19 01:12:11;;;;;;;8.55;2.53;;;;;;;;;;1023738;28;20036;-73
2022/08/19 01:12:42;;;;;;;7.60;2.33;;;;;;;;;;1023971;28;20048;-73
2022/08/19 01:13:14;;;;;;;7.90;2.20;;;;;;;;;;1023860;28;20034;-73
2022/08/19 01:13:45;;;;;;;4.85;1.88;;;;;;;;;;1023659;29;20538;-73
2022/08/19 01:14:16;;;;;;;5.72;1.92;;;;;;;;;;1023421;29;20023;-73
2022/08/19 01:14:47;;;;;;;12.27;2.72;;;;;;;;;;1023733;29;20023;-73
2022/08/19 01:15:21;;;;;;;6.07;2.10;;;;;;;;;;1023530;29;20484;-73
2022/08/19 01:16:00;;;;;;;9.02;2.67;;;;;;;;;;1024052;28;20538;-73
2022/08/19 01:16:31;;;;;;;14.18;2.92;;;;;;;;;;1023868;28;20038;-73
2022/08/19 01:17:02;;;;;;;26.95;3.25;;;;;;;;;;1023887;28;20031;-73
2022/08/19 01:17:33;;;;;;;13.80;2.47;;;;;;;;;;1023936;28;20499;-73
2022/08/19 01:18:06;;;;;;;8.98;2.03;;;;;;;;;;1023883;28;20027;-73
2022/08/19 01:18:38;;;;;;;7.38;2.08;;;;;;;;;;1024841;28;20031;-73
2022/08/19 01:19:32;;;;;;;9.68;2.63;;;;;;;;;;1027528;28;20031;-74
2022/08/19 01:20:03;;;;;;;7.18;2.83;;;;;;;;;;1017614;28;20035;-73
2022/08/19 01:20:34;;;;;;;10.25;2.30;;;;;;;;;;1027747;28;20041;-73
2022/08/19 01:21:26;;;;;;;11.20;2.20;;;;;;;;;;1027361;28;20093;-73
2022/08/19 01:22:19;;;;;;;21.40;3.10;;;;;;;;;;1023600;28;20451;-73
2022/08/19 01:22:51;;;;;;;15.57;3.00;;;;;;;;;;1023876;29;20415;-73
2022/08/19 01:23:42;;;;;;;9.52;3.00;;;;;;;;;;1023786;28;20062;-73
2022/08/19 01:24:12;;;;;;;26.10;3.42;;;;;;;;;;1023191;28;20027;-73
2022/08/19 01:24:43;;;;;;;13.52;5.03;;;;;;;;;;1023469;28;20122;-73
2022/08/19 01:25:15;;;;;;;13.52;4.35;;;;;;;;;;1026459;28;20027;-73
2022/08/19 01:25:50;;;;;;;10.10;3.92;;;;;;;;;;1026177;28;20463;-74
2022/08/19 01:26:22;;;;;;;8.60;3.17;;;;;;;;;;1025667;28;20077;-73
2022/08/19 01:26:52;;;;;;;14.02;3.40;;;;;;;;;;1024562;28;20031;-73
2022/08/19 01:27:23;;;;;;;8.27;4.13;;;;;;;;;;1025030;28;20074;-73
2022/08/19 01:27:54;;;;;;;19.67;4.47;;;;;;;;;;1024432;28;20027;-74
2022/08/19 01:28:26;;;;;;;10.80;3.72;;;;;;;;;;1025426;28;20395;-74
2022/08/19 01:28:59;;;;;;;10.95;3.15;;;;;;;;;;1023005;28;20035;-73
2022/08/19 01:29:29;;;;;;;16.80;4.10;;;;;;;;;;1026061;28;20133;-74
2022/08/19 01:30:00;;;;;;;10.32;3.88;;;;;;;;;;1026674;28;20023;-73
2022/08/19 01:30:33;;;;;;;28.23;4.90;;;;;;;;;;1022225;28;20027;-74
2022/08/19 01:31:04;;;;;;;10.73;3.45;;;;;;;;;;1024979;28;20085;-74
2022/08/19 01:31:34;;;;;;;10.38;3.20;;;;;;;;;;1023944;28;20081;-73
2022/08/19 01:32:05;;;;;;;8.65;2.28;;;;;;;;;;1022119;28;20593;-74
2022/08/19 01:32:36;;;;;;;18.83;3.13;;;;;;;;;;1024762;28;20485;-74
2022/08/19 01:33:06;;;;;;;15.77;3.13;;;;;;;;;;1025366;28;20030;-74
2022/08/19 01:33:37;;;;;;;8.70;2.60;;;;;;;;;;1026360;28;20023;-73
2022/08/19 01:34:09;;;;;;;13.60;3.28;;;;;;;;;;1026012;28;20027;-74
2022/08/19 01:34:40;;;;;;;17.58;2.72;;;;;;;;;;1027711;28;20413;-73
2022/08/19 01:35:12;;;;;;;8.52;1.80;;;;;;;;;;1027318;28;20031;-73
2022/08/19 01:35:43;;;;;;;11.88;3.13;;;;;;;;;;1026461;28;20035;-74
2022/08/19 01:36:16;;;;;;;14.68;3.03;;;;;;;;;;1027121;28;20142;-74
2022/08/19 01:36:47;;;;;;;8.38;2.53;;;;;;;;;;1028029;28;20030;-74
2022/08/19 01:37:17;;;;;;;21.60;2.15;;;;;;;;;;1027264;28;20034;-73
2022/08/19 01:37:51;;;;;;;9.60;2.00;;;;;;;;;;1028689;28;20129;-73
2022/08/19 01:38:24;;;;;;;13.00;2.65;;;;;;;;;;1027168;28;20077;-74
2022/08/19 01:38:55;;;;;;;5.78;2.13;;;;;;;;;;1027678;28;20038;-74
2022/08/19 01:39:26;;;;;;;7.13;1.90;;;;;;;;;;1025632;28;20030;-74
2022/08/19 01:39:57;;;;;;;15.43;2.65;;;;;;;;;;1028214;28;20422;-74
2022/08/19 01:40:32;;;;;;;15.68;2.58;;;;;;;;;;1025881;28;20487;-74
2022/08/19 01:41:03;;;;;;;12.85;2.50;;;;;;;;;;1028095;28;20031;-73
2022/08/19 01:41:34;;;;;;;10.57;3.03;;;;;;;;;;1027945;28;20026;-73
2022/08/19 01:42:06;;;;;;;12.80;1.67;;;;;;;;;;1027212;28;20446;-74
2022/08/19 01:42:36;;;;;;;11.63;2.70;;;;;;;;;;1027432;28;20026;-74
2022/08/19 01:43:08;;;;;;;14.48;1.92;;;;;;;;;;1027325;28;20569;-74
2022/08/19 01:43:38;;;;;;;8.35;2.55;;;;;;;;;;1024549;28;20377;-73
2022/08/19 01:44:09;;;;;;;8.18;2.90;;;;;;;;;;1022923;29;20126;-74
2022/08/19 01:44:43;;;;;;;4.25;1.80;;;;;;;;;;1020622;29;20015;-74
2022/08/19 01:45:13;;;;;;;19.70;2.22;;;;;;;;;;1021294;28;20027;-74
2022/08/19 01:45:44;;;;;;;26.23;3.00;;;;;;;;;;1024448;29;20034;-74
2022/08/19 01:46:15;;;;;;;7.40;2.03;;;;;;;;;;1025200;28;20030;-74
2022/08/19 01:46:47;;;;;;;5.05;2.35;;;;;;;;;;1028113;28;20065;-74
2022/08/19 01:47:18;;;;;;;9.90;2.53;;;;;;;;;;1028902;28;20035;-74
2022/08/19 01:47:49;;;;;;;16.10;2.40;;;;;;;;;;1032216;28;20029;-74
2022/08/19 01:48:20;;;;;;;12.02;2.88;;;;;;;;;;1024987;28;20035;-74
2022/08/19 01:48:50;;;;;;;23.45;3.13;;;;;;;;;;1028264;28;20027;-74
2022/08/19 01:49:23;;;;;;;15.18;1.92;;;;;;;;;;1026950;28;20031;-74
2022/08/19 01:49:53;;;;;;;9.23;2.97;;;;;;;;;;1028151;28;20487;-74
2022/08/19 01:50:24;;;;;;;16.80;2.95;;;;;;;;;;1027261;28;20038;-74
2022/08/19 01:50:55;;;;;;;17.27;2.63;;;;;;;;;;1027525;28;20030;-74
2022/08/19 01:51:26;;;;;;;17.35;2.42;;;;;;;;;;1027483;28;20506;-74
2022/08/19 01:51:59;;;;;;;8.07;1.58;;;;;;;;;;1028508;28;20026;-74
2022/08/19 01:52:30;;;;;;;9.40;2.10;;;;;;;;;;1026763;28;20027;-74
2022/08/19 01:53:01;;;;;;;19.30;1.95;;;;;;;;;;1027153;28;20031;-73
2022/08/19 01:53:32;;;;;;;14.88;2.20;;;;;;;;;;1026541;28;20022;-74
2022/08/19 01:54:03;;;;;;;19.35;2.83;;;;;;;;;;1025439;28;20509;-74
2022/08/19 01:54:33;;;;;;;10.95;2.13;;;;;;;;;;1027708;28;20499;-73
2022/08/19 01:55:05;;;;;;;17.90;1.77;;;;;;;;;;1027910;28;20025;-73
2022/08/19 01:55:39;;;;;;;12.77;2.10;;;;;;;;;;1027658;28;20537;-74
2022/08/19 01:56:09;;;;;;;7.03;1.88;;;;;;;;;;1024750;28;20019;-74
2022/08/19 01:56:40;;;;;;;12.15;1.92;;;;;;;;;;1022875;28;20428;-74
2022/08/19 01:57:12;;;;;;;6.07;2.58;;;;;;;;;;1023478;29;20102;-74
2022/08/19 01:57:44;;;;;;;15.60;2.50;;;;;;;;;;1023951;29;20514;-74
2022/08/19 01:58:17;;;;;;;9.20;2.17;;;;;;;;;;1024112;28;20027;-73
2022/08/19 01:59:07;;;;;;;6.88;2.13;;;;;;;;;;1028211;28;20074;-73
2022/08/19 01:59:39;;;;;;;15.18;2.25;;;;;;;;;;1027281;28;20031;-74
2022/08/19 02:00:11;;;;;;;15.43;2.50;;;;;;;;;;1028038;28;20387;-73
2022/08/19 02:00:42;;;;;;;12.68;2.92;;;;;;;;;;1027677;28;20034;-73
2022/08/19 02:01:13;;;;;;;15.13;2.42;;;;;;;;;;1026212;28;20501;-74
2022/08/19 02:01:44;;;;;;;11.35;2.25;;;;;;;;;;1026916;28;20097;-74
2022/08/19 02:02:14;;;;;;;9.00;2.55;;;;;;;;;;1025815;28;20455;-74
2022/08/19 02:02:45;;;;;;;19.40;2.72;;;;;;;;;;1026073;28;20056;-73
2022/08/19 02:03:15;;;;;;;7.57;2.25;;;;;;;;;;1027027;28;20023;-74
2022/08/19 02:03:46;;;;;;;15.07;2.60;;;;;;;;;;1027032;28;20408;-73
2022/08/19 02:04:17;;;;;;;22.00;2.83;;;;;;;;;;1027308;28;20031;-74
2022/08/19 02:04:47;;;;;;;21.75;3.17;;;;;;;;;;1027473;28;20026;-74
2022/08/19 02:05:20;;;;;;;13.75;3.35;;;;;;;;;;1026372;28;20018;-74
2022/08/19 02:05:59;;;;;;;17.13;2.65;;;;;;;;;;1028445;28;20027;-74
2022/08/19 02:06:29;;;;;;;10.77;2.42;;;;;;;;;;1026240;28;20483;-74
2022/08/19 02:07:00;;;;;;;16.20;2.90;;;;;;;;;;1027930;28;20158;-74
2022/08/19 02:07:32;;;;;;;12.65;2.00;;;;;;;;;;1025533;28;20527;-74
2022/08/19 02:08:03;;;;;;;11.52;2.70;;;;;;;;;;1022698;29;20507;-74
2022/08/19 02:08:36;;;;;;;15.85;2.58;;;;;;;;;;1022291;29;20110;-74
2022/08/19 02:09:08;;;;;;;10.80;2.58;;;;;;;;;;1017894;29;20080;-74
2022/08/19 02:09:38;;;;;;;9.75;2.78;;;;;;;;;;1019901;29;20024;-74
2022/08/19 02:10:10;;;;;;;13.68;2.35;;;;;;;;;;1023096;29;20019;-74
2022/08/19 02:10:42;;;;;;;15.65;2.85;;;;;;;;;;1024633;28;20510;-74
2022/08/19 02:11:19;;;;;;;16.70;2.50;;;;;;;;;;1023451;28;20035;-74
2022/08/19 02:11:49;;;;;;;13.43;3.22;;;;;;;;;;1025815;28;20034;-74
2022/08/19 02:12:20;;;;;;;14.10;1.98;;;;;;;;;;1026235;28;20109;-74
2022/08/19 02:12:51;;;;;;;13.18;2.95;;;;;;;;;;1025813;28;20085;-74
2022/08/19 02:13:22;;;;;;;8.98;2.67;;;;;;;;;;1025754;28;20154;-74
2022/08/19 02:13:53;;;;;;;10.45;2.60;;;;;;;;;;1027017;28;20117;-74
2022/08/19 02:14:24;;;;;;;18.42;4.28;;;;;;;;;;1026476;28;20081;-73
2022/08/19 02:14:54;;;;;;;15.27;3.63;;;;;;;;;;1026804;28;20033;-74
2022/08/19 02:15:25;;;;;;;11.73;2.55;;;;;;;;;;1025843;28;20478;-74
2022/08/19 02:15:56;;;;;;;19.85;3.25;;;;;;;;;;1027606;28;20038;-74
2022/08/19 02:16:27;;;;;;;16.50;2.65;;;;;;;;;;1025974;28;20038;-74
2022/08/19 02:16:57;;;;;;;20.30;3.22;;;;;;;;;;1026511;28;20086;-74
2022/08/19 02:17:28;;;;;;;6.85;2.83;;;;;;;;;;1026252;28;20034;-74
2022/08/19 02:17:59;;;;;;;15.55;3.17;;;;;;;;;;1028059;28;20025;-74
2022/08/19 02:18:30;;;;;;;14.27;2.63;;;;;;;;;;1026302;28;20030;-74
2022/08/19 02:19:00;;;;;;;8.98;2.17;;;;;;;;;;1027959;28;20023;-73
2022/08/19 02:19:32;;;;;;;12.70;2.35;;;;;;;;;;1026693;28;20057;-74
2022/08/19 02:20:03;;;;;;;8.38;2.72;;;;;;;;;;1027489;28;20034;-74
2022/08/19 02:20:34;;;;;;;9.75;2.55;;;;;;;;;;1028081;28;20026;-74
2022/08/19 02:21:04;;;;;;;5.30;2.55;;;;;;;;;;1027310;28;20054;-74
2022/08/19 02:21:35;;;;;;;30.38;4.30;;;;;;;;;;1026825;28;20039;-74
2022/08/19 02:22:06;;;;;;;16.58;3.50;;;;;;;;;;1027272;28;20391;-73
2022/08/19 02:22:36;;;;;;;13.00;3.40;;;;;;;;;;1026881;28;20042;-74
2022/08/19 02:23:08;;;;;;;20.60;3.70;;;;;;;;;;1026173;28;20030;-74
2022/08/19 02:23:38;;;;;;;12.95;3.80;;;;;;;;;;1027536;28;20382;-74
2022/08/19 02:24:09;;;;;;;22.77;4.25;;;;;;;;;;1026527;28;20023;-74
2022/08/19 02:24:40;;;;;;;10.05;4.53;;;;;;;;;;1027058;28;20032;-74
2022/08/19 02:25:11;;;;;;;15.00;3.75;;;;;;;;;;1027047;28;20054;-74
2022/08/19 02:25:44;;;;;;;29.58;4.95;;;;;;;;;;1025719;28;20027;-74
2022/08/19 02:26:14;;;;;;;26.55;4.88;;;;;;;;;;1025020;28;20371;-74
2022/08/19 02:26:45;;;;;;;21.80;4.72;;;;;;;;;;1026228;28;20041;-74
2022/08/19 02:27:16;;;;;;;26.33;4.90;;;;;;;;;;1026698;28;20030;-74
2022/08/19 02:27:47;;;;;;;18.90;4.13;;;;;;;;;;1026085;28;20031;-74
2022/08/19 02:28:17;;;;;;;15.68;4.10;;;;;;;;;;1026943;28;20471;-74
2022/08/19 02:28:48;;;;;;;17.13;4.57;;;;;;;;;;1026833;28;20454;-74
2022/08/19 02:29:18;;;;;;;11.35;3.60;;;;;;;;;;1026465;28;20147;-74
2022/08/19 02:29:50;;;;;;;20.60;5.00;;;;;;;;;;1027774;28;20116;-74
2022/08/19 02:30:21;;;;;;;29.48;4.20;;;;;;;;;;1026042;28;20027;-74
2022/08/19 02:30:51;;;;;;;16.38;3.75;;;;;;;;;;1026962;28;20364;-74
2022/08/19 02:31:23;;;;;;;45.58;4.68;;;;;;;;;;1026148;28;20414;-74
2022/08/19 02:31:54;;;;;;;32.28;4.38;;;;;;;;;;1027024;28;20019;-74
2022/08/19 02:32:25;;;;;;;29.77;4.68;;;;;;;;;;1025789;28;20118;-74
2022/08/19 02:32:55;;;;;;;21.67;3.92;;;;;;;;;;1026810;28;20018;-74
2022/08/19 02:33:26;;;;;;;26.27;4.07;;;;;;;;;;1026110;28;20637;-74
2022/08/19 02:33:57;;;;;;;27.33;3.83;;;;;;;;;;1027966;28;20071;-74
2022/08/19 02:34:27;;;;;;;24.42;3.83;;;;;;;;;;1026238;28;20276;-74
2022/08/19 02:34:58;;;;;;;14.55;3.45;;;;;;;;;;1027917;28;20033;-74
2022/08/19 02:35:28;;;;;;;23.98;4.00;;;;;;;;;;1026029;28;20034;-74
2022/08/19 02:35:59;;;;;;;24.17;3.58;;;;;;;;;;1027684;28;20026;-74
2022/08/19 02:36:30;;;;;;;26.63;4.72;;;;;;;;;;1025905;28;20022;-74
2022/08/19 02:37:00;;;;;;;19.95;4.30;;;;;;;;;;1026187;28;20664;-74
2022/08/19 02:38:26;;;;;;;22.67;3.88;;;;;;;;;;1045248;23;20632;-73
2022/08/19 02:38:57;;;;;;;16.48;3.78;;;;;;;;;;1027418;28;20080;-74
2022/08/19 02:39:27;;;;;;;21.25;3.63;;;;;;;;;;1027346;28;20394;-74
2022/08/19 02:39:58;;;;;;;25.13;3.13;;;;;;;;;;1027842;28;20061;-74
2022/08/19 02:40:29;;;;;;;15.93;3.75;;;;;;;;;;1027307;28;20054;-74
2022/08/19 02:41:02;;;;;;;10.40;2.53;;;;;;;;;;1027002;28;20186;-74
2022/08/19 02:41:33;;;;;;;20.70;4.05;;;;;;;;;;1027752;28;20394;-74
2022/08/19 02:42:04;;;;;;;21.70;3.20;;;;;;;;;;1025968;28;20035;-74
2022/08/19 02:42:34;;;;;;;9.82;3.08;;;;;;;;;;1027056;28;20122;-73
2022/08/19 02:43:07;;;;;;;24.35;3.55;;;;;;;;;;1026609;28;20025;-74
2022/08/19 02:43:40;;;;;;;34.75;3.15;;;;;;;;;;1024909;28;20027;-74
2022/08/19 02:44:10;;;;;;;14.00;3.80;;;;;;;;;;1025967;28;20502;-74
2022/08/19 02:44:41;;;;;;;18.63;3.97;;;;;;;;;;1025555;28;20035;-74
2022/08/19 02:45:13;;;;;;;18.83;3.20;;;;;;;;;;1025105;28;20031;-74
2022/08/19 02:45:43;;;;;;;10.95;3.38;;;;;;;;;;1025509;28;20039;-74
2022/08/19 02:46:20;;;;;;;14.95;3.50;;;;;;;;;;1028503;28;20398;-74
2022/08/19 02:46:51;;;;;;;13.50;3.85;;;;;;;;;;1029186;28;20034;-74
2022/08/19 02:47:21;;;;;;;16.05;3.55;;;;;;;;;;1028083;28;20027;-74
2022/08/19 02:47:52;;;;;;;18.65;3.67;;;;;;;;;;1027196;28;20084;-74
2022/08/19 02:48:24;;;;;;;12.98;3.53;;;;;;;;;;1023559;28;20531;-74
2022/08/19 02:48:56;;;;;;;12.85;4.00;;;;;;;;;;1025921;28;20114;-74
2022/08/19 02:49:26;;;;;;;10.40;4.20;;;;;;;;;;1023853;28;20153;-74
2022/08/19 02:49:57;;;;;;;22.27;3.20;;;;;;;;;;1020923;29;20035;-74
2022/08/19 02:50:27;;;;;;;19.63;2.53;;;;;;;;;;1020281;29;20065;-74
2022/08/19 02:50:58;;;;;;;11.27;2.75;;;;;;;;;;1021622;28;20042;-74
2022/08/19 02:51:31;;;;;;;11.52;2.38;;;;;;;;;;1023914;28;20122;-74
2022/08/19 02:52:02;;;;;;;19.15;3.08;;;;;;;;;;1024970;28;20034;-74
2022/08/19 02:52:33;;;;;;;9.30;2.63;;;;;;;;;;1025571;28;20031;-74
2022/08/19 02:53:04;;;;;;;13.88;2.40;;;;;;;;;;1025150;28;20063;-74
2022/08/19 02:53:34;;;;;;;13.82;2.83;;;;;;;;;;1025331;28;20046;-74
2022/08/19 02:54:06;;;;;;;14.75;3.15;;;;;;;;;;1024131;28;20383;-74
2022/08/19 02:54:37;;;;;;;14.60;2.97;;;;;;;;;;1024555;28;20030;-74
2022/08/19 02:55:08;;;;;;;10.88;2.65;;;;;;;;;;1017901;29;20515;-74
2022/08/19 02:55:43;;;;;;;8.93;2.78;;;;;;;;;;1019351;28;20043;-74
2022/08/19 02:56:14;;;;;;;13.40;2.38;;;;;;;;;;1025364;28;20106;-74
2022/08/19 02:56:46;;;;;;;12.73;2.25;;;;;;;;;;1025141;28;20034;-74
2022/08/19 02:57:16;;;;;;;10.93;3.33;;;;;;;;;;1024021;28;20114;-74
2022/08/19 02:57:47;;;;;;;15.57;2.55;;;;;;;;;;1025842;28;20050;-74
2022/08/19 02:58:18;;;;;;;12.07;2.05;;;;;;;;;;1024680;28;20019;-74
2022/08/19 02:58:49;;;;;;;10.07;2.45;;;;;;;;;;1025732;28;20039;-74
2022/08/19 02:59:20;;;;;;;5.47;1.65;;;;;;;;;;1025605;28;20410;-74
2022/08/19 02:59:50;;;;;;;23.83;2.38;;;;;;;;;;1026166;28;20068;-74
2022/08/19 03:00:21;;;;;;;7.15;1.52;;;;;;;;;;1025621;28;20451;-74
2022/08/19 03:00:52;;;;;;;11.93;1.92;;;;;;;;;;1024672;28;20054;-74
2022/08/19 03:01:25;;;;;;;8.57;1.83;;;;;;;;;;1022334;28;20066;-74
2022/08/19 03:01:56;;;;;;;10.95;2.20;;;;;;;;;;1023217;28;20027;-74
2022/08/19 03:02:27;;;;;;;6.13;1.98;;;;;;;;;;1027265;28;20448;-74
2022/08/19 03:02:58;;;;;;;8.35;2.15;;;;;;;;;;1026226;28;20428;-74
2022/08/19 03:03:29;;;;;;;13.82;2.55;;;;;;;;;;1024904;28;20039;-74
2022/08/19 03:04:00;;;;;;;15.50;2.70;;;;;;;;;;1021404;28;20121;-74
2022/08/19 03:04:31;;;;;;;11.77;2.63;;;;;;;;;;1022309;28;20035;-74
2022/08/19 03:05:03;;;;;;;5.55;2.45;;;;;;;;;;1025738;28;20038;-74
2022/08/19 03:05:34;;;;;;;12.05;3.05;;;;;;;;;;1029293;28;20105;-74
2022/08/19 03:06:05;;;;;;;6.10;2.00;;;;;;;;;;1028599;28;20035;-74
2022/08/19 03:06:40;;;;;;;12.93;1.85;;;;;;;;;;1029108;28;20096;-74
2022/08/19 03:07:13;;;;;;;5.47;2.13;;;;;;;;;;1027177;28;20436;-74
2022/08/19 03:07:45;;;;;;;15.35;3.55;;;;;;;;;;1026017;28;20038;-74
2022/08/19 03:08:15;;;;;;;43.53;3.55;;;;;;;;;;1021925;28;20114;-74
2022/08/19 03:08:46;;;;;;;20.50;3.15;;;;;;;;;;1025770;28;20075;-74